^^
Station Historical Data
Daily Summary for January 30, 2017 Units:  English    Metric   Both
« Previous Day
Next Day »
Daily Weekly Monthly Yearly Custom
  High: Low: Average:
Temperature: 34.5 °F 25.8 °F 29.9 °F
Dew Point: 22.1 °F 10.8 °F 15.8 °F
Humidity: 76% 41% 56%
Wind Speed: 5.0mph 0.0mph 0.9mph
Wind Gust: 14.0mph - -
Wind- - SW
Pressure: 29.98 in 29.74 in -
Precipitation: 0.00 in    
Historical Graphs
 
 
Tabular Data for January 30, 2017
Time Temperature Dew Point Pressure Wind Wind Speed Wind Gust Humidity Rainfall Rate (Hourly) Conditions
00:00 30.0 °F 19.7 °F 29.74 in Calm   1.0 mph 65% 0.00 in BKN
00:10 29.7 °F 19.4 °F 29.75 in Calm     65% 0.00 in BKN
00:20 29.3 °F 19.7 °F 29.75 in Calm     67% 0.00 in BKN
00:30 29.1 °F 19.2 °F 29.75 in Calm     66% 0.00 in BKN
00:40 28.4 °F 19.1 °F 29.74 in Calm     68% 0.00 in BKN
00:50 28.0 °F 18.8 °F 29.75 in Calm     68% 0.00 in BKN
01:00 27.2 °F 18.7 °F 29.75 in Calm     70% 0.00 in BKN
01:10 27.6 °F 19.1 °F 29.75 in Calm     70% 0.00 in CLR
01:20 27.1 °F 18.9 °F 29.75 in Calm     71% 0.00 in CLR
01:30 26.7 °F 18.6 °F 29.75 in Calm     71% 0.00 in CLR
01:40 28.2 °F 19.6 °F 29.75 in Calm     70% 0.00 in CLR
01:50 29.3 °F 20.1 °F 29.75 in Calm   1.0 mph 68% 0.00 in CLR
02:00 30.0 °F 20.8 °F 29.75 in Calm   1.0 mph 68% 0.00 in CLR
02:10 30.1 °F 20.5 °F 29.75 in Calm   1.0 mph 67% 0.00 in BKN
02:20 30.2 °F 20.9 °F 29.75 in Calm   1.0 mph 68% 0.00 in BKN
02:30 30.2 °F 20.6 °F 29.75 in Calm   2.0 mph 67% 0.00 in BKN
02:40 30.3 °F 21.0 °F 29.75 in Calm   2.0 mph 68% 0.00 in BKN
02:50 30.1 °F 21.8 °F 29.75 in Calm   2.0 mph 71% 0.00 in BKN
03:00 30.0 °F 22.1 °F 29.75 in North 1.0 mph 3.0 mph 72% 0.00 in BKN
03:10 30.0 °F 22.0 °F 29.75 in Calm   2.0 mph 72% 0.00 in BKN
03:20 29.7 °F 21.8 °F 29.75 in Calm   3.0 mph 72% 0.00 in BKN
03:30 29.4 °F 21.8 °F 29.75 in Calm   3.0 mph 73% 0.00 in BKN
03:40 29.2 °F 21.9 °F 29.75 in Calm   2.0 mph 74% 0.00 in BKN
03:50 28.9 °F 21.7 °F 29.76 in Calm   2.0 mph 74% 0.00 in BKN
04:00 29.1 °F 21.2 °F 29.76 in NNE 2.0 mph 7.0 mph 72% 0.00 in BKN
04:10 29.1 °F 21.2 °F 29.76 in North 1.0 mph 3.0 mph 72% 0.00 in SCT
04:20 29.0 °F 21.5 °F 29.77 in NNW 1.0 mph 6.0 mph 73% 0.00 in SCT
04:30 28.8 °F 21.2 °F 29.76 in NNW 2.0 mph 6.0 mph 73% 0.00 in SCT
04:40 28.5 °F 21.3 °F 29.76 in Calm   8.0 mph 74% 0.00 in SCT
04:50 28.1 °F 20.9 °F 29.76 in Calm   2.0 mph 74% 0.00 in SCT
05:00 28.1 °F 21.2 °F 29.76 in Calm   3.0 mph 75% 0.00 in SCT
05:10 28.0 °F 21.1 °F 29.77 in Calm   2.0 mph 75% 0.00 in SCT
05:20 27.7 °F 21.1 °F 29.77 in Calm     76% 0.00 in SCT
05:30 27.7 °F 21.1 °F 29.77 in Calm   2.0 mph 76% 0.00 in SCT
05:40 27.8 °F 21.2 °F 29.77 in NNE 1.0 mph 3.0 mph 76% 0.00 in SCT
05:50 28.0 °F 21.1 °F 29.77 in Calm   2.0 mph 75% 0.00 in SCT
06:00 28.2 °F 21.0 °F 29.77 in Calm   3.0 mph 74% 0.00 in SCT
06:10 28.4 °F 20.8 °F 29.77 in Calm   3.0 mph 73% 0.00 in SCT
06:20 28.4 °F 20.9 °F 29.77 in Calm   2.0 mph 73% 0.00 in SCT
06:30 28.6 °F 20.7 °F 29.78 in Calm   2.0 mph 72% 0.00 in SCT
06:40 28.7 °F 20.8 °F 29.78 in Calm   1.0 mph 72% 0.00 in SCT
06:50 28.8 °F 20.6 °F 29.78 in Calm   1.0 mph 71% 0.00 in SCT
07:00 28.8 °F 20.6 °F 29.78 in Calm   2.0 mph 71% 0.00 in SCT
07:10 28.7 °F 20.5 °F 29.78 in Calm   2.0 mph 71% 0.00 in BKN
07:20 28.6 °F 20.4 °F 29.78 in Calm   1.0 mph 71% 0.00 in BKN
07:30 28.8 °F 20.6 °F 29.78 in Calm   1.0 mph 71% 0.00 in BKN
07:40 28.9 °F 20.0 °F 29.78 in Calm   3.0 mph 69% 0.00 in BKN
07:50 28.9 °F 18.2 °F 29.78 in NNW 2.0 mph 6.0 mph 64% 0.00 in BKN
08:00 29.0 °F 17.2 °F 29.78 in NNE 1.0 mph 6.0 mph 61% 0.00 in BKN
08:10 29.1 °F 16.1 °F 29.79 in North 2.0 mph 6.0 mph 58% 0.00 in SCT
08:20 29.2 °F 16.2 °F 29.79 in North 1.0 mph 4.0 mph 58% 0.00 in SCT
08:30 29.3 °F 15.9 °F 29.79 in Calm   3.0 mph 57% 0.00 in SCT
08:40 29.3 °F 15.1 °F 29.80 in NNW 1.0 mph 5.0 mph 55% 0.00 in SCT
08:50 29.3 °F 15.1 °F 29.80 in Calm   3.0 mph 55% 0.00 in SCT
09:00 29.4 °F 15.6 °F 29.80 in NNW 1.0 mph 4.0 mph 56% 0.00 in SCT
09:10 29.7 °F 15.9 °F 29.79 in Calm   3.0 mph 56% 0.00 in SCT
09:20 29.9 °F 16.1 °F 29.80 in Calm   2.0 mph 56% 0.00 in SCT
09:30 30.3 °F 16.0 °F 29.80 in Calm   3.0 mph 55% 0.00 in SCT
09:40 30.8 °F 16.5 °F 29.80 in NW 1.0 mph 6.0 mph 55% 0.00 in SCT
09:50 31.0 °F 16.7 °F 29.80 in NW 1.0 mph 6.0 mph 55% 0.00 in SCT
10:00 31.4 °F 16.6 °F 29.81 in WNW 1.0 mph 7.0 mph 54% 0.00 in SCT
10:10 32.0 °F 15.4 °F 29.81 in NNE 2.0 mph 6.0 mph 50% 0.00 in SCT
10:20 32.1 °F 15.5 °F 29.81 in NNW 1.0 mph 7.0 mph 50% 0.00 in SCT
10:30 32.0 °F 14.0 °F 29.81 in NNW 2.0 mph 8.0 mph 47% 0.00 in SCT
10:40 31.9 °F 13.9 °F 29.82 in NNW 1.0 mph 8.0 mph 47% 0.00 in SCT
10:50 31.6 °F 14.1 °F 29.82 in ENE 1.0 mph 8.0 mph 48% 0.00 in SCT
11:00 31.4 °F 14.0 °F 29.82 in WNW 2.0 mph 7.0 mph 48% 0.00 in SCT
11:20 31.4 °F 14.9 °F 29.82 in NNW 1.0 mph 10.0 mph 50% 0.00 in SCT
11:30 31.8 °F 14.8 °F 29.82 in WSW 1.0 mph 9.0 mph 49% 0.00 in SCT
11:40 31.8 °F 14.8 °F 29.82 in WNW 1.0 mph 7.0 mph 49% 0.00 in SCT
11:50 32.1 °F 14.6 °F 29.82 in West 1.0 mph 6.0 mph 48% 0.00 in SCT
12:00 32.0 °F 14.5 °F 29.81 in North 2.0 mph 7.0 mph 48% 0.00 in SCT
12:30 32.6 °F 16.0 °F 29.80 in NW 1.0 mph 7.0 mph 50% 0.00 in SCT
12:40 32.8 °F 16.2 °F 29.80 in WSW 2.0 mph 9.0 mph 50% 0.00 in SCT
13:10 32.7 °F 14.7 °F 29.79 in North 1.0 mph 8.0 mph 47% 0.00 in FEW
13:20 33.0 °F 14.9 °F 29.78 in NW 3.0 mph 9.0 mph 47% 0.00 in FEW
13:30 33.1 °F 14.5 °F 29.78 in NNW 2.0 mph 7.0 mph 46% 0.00 in FEW
13:40 33.4 °F 14.3 °F 29.78 in NW 2.0 mph 7.0 mph 45% 0.00 in FEW
13:50 33.2 °F 14.1 °F 29.78 in NNW 5.0 mph 12.0 mph 45% 0.00 in FEW
14:00 33.0 °F 14.4 °F 29.78 in NNW 1.0 mph 10.0 mph 46% 0.00 in FEW
14:10 33.4 °F 14.8 °F 29.78 in NNW 5.0 mph 11.0 mph 46% 0.00 in FEW
14:20 34.1 °F 15.5 °F 29.78 in NW 3.0 mph 8.0 mph 46% 0.00 in FEW
14:30 33.8 °F 14.2 °F 29.79 in NW 3.0 mph 14.0 mph 44% 0.00 in FEW
14:40 34.0 °F 14.4 °F 29.79 in NW 1.0 mph 8.0 mph 44% 0.00 in FEW
14:50 34.2 °F 15.0 °F 29.79 in NNW 2.0 mph 8.0 mph 45% 0.00 in FEW
15:00 34.5 °F 14.3 °F 29.80 in NNE 2.0 mph 7.0 mph 43% 0.00 in FEW
15:10 34.5 °F 13.2 °F 29.80 in NE 3.0 mph 7.0 mph 41% 0.00 in FEW
15:20 34.1 °F 12.8 °F 29.80 in North 3.0 mph 13.0 mph 41% 0.00 in FEW
15:30 33.9 °F 12.6 °F 29.81 in NW 2.0 mph 10.0 mph 41% 0.00 in FEW
15:40 33.8 °F 13.1 °F 29.81 in NNW 2.0 mph 10.0 mph 42% 0.00 in FEW
15:50 33.6 °F 12.9 °F 29.81 in North 2.0 mph 10.0 mph 42% 0.00 in FEW
16:00 33.4 °F 12.7 °F 29.82 in NW 5.0 mph 8.0 mph 42% 0.00 in FEW
16:10 33.3 °F 12.6 °F 29.82 in NNE 5.0 mph 9.0 mph 42% 0.00 in FEW
16:20 32.8 °F 12.8 °F 29.83 in North 3.0 mph 12.0 mph 43% 0.00 in FEW
16:30 32.6 °F 12.5 °F 29.83 in North 3.0 mph 13.0 mph 43% 0.00 in FEW
16:40 32.5 °F 12.5 °F 29.84 in NNW 3.0 mph 10.0 mph 43% 0.00 in FEW
16:50 32.3 °F 12.8 °F 29.84 in ENE 1.0 mph 9.0 mph 44% 0.00 in FEW
17:00 31.8 °F 12.8 °F 29.84 in North 1.0 mph 6.0 mph 45% 0.00 in FEW
17:10 31.3 °F 12.9 °F 29.85 in Calm   6.0 mph 46% 0.00 in FEW
17:20 31.0 °F 13.1 °F 29.85 in ENE 1.0 mph 9.0 mph 47% 0.00 in FEW
17:30 30.9 °F 12.5 °F 29.86 in North 1.0 mph 9.0 mph 46% 0.00 in FEW
17:40 30.7 °F 12.3 °F 29.86 in NNW 1.0 mph 6.0 mph 46% 0.00 in FEW
17:50 30.6 °F 12.7 °F 29.87 in Calm   5.0 mph 47% 0.00 in FEW
18:00 30.4 °F 12.6 °F 29.88 in Calm   5.0 mph 47% 0.00 in FEW
18:10 30.4 °F 12.0 °F 29.88 in Calm   7.0 mph 46% 0.00 in FEW
18:20 30.1 °F 12.3 °F 29.89 in Calm   2.0 mph 47% 0.00 in FEW
18:30 30.1 °F 12.2 °F 29.89 in North 1.0 mph 4.0 mph 47% 0.00 in FEW
18:40 30.0 °F 12.7 °F 29.90 in Calm   5.0 mph 48% 0.00 in FEW
18:50 29.7 °F 12.8 °F 29.90 in NE 1.0 mph 4.0 mph 49% 0.00 in FEW
19:00 29.6 °F 12.8 °F 29.91 in NE 1.0 mph 4.0 mph 49% 0.00 in FEW
19:10 29.7 °F 12.4 °F 29.91 in NNE 1.0 mph 9.0 mph 48% 0.00 in CLR
19:20 29.5 °F 11.7 °F 29.92 in NNW 1.0 mph 7.0 mph 47% 0.00 in CLR
19:30 29.4 °F 12.1 °F 29.92 in NW 1.0 mph 8.0 mph 48% 0.00 in CLR
19:40 29.3 °F 12.5 °F 29.92 in NE 1.0 mph 5.0 mph 49% 0.00 in CLR
19:50 29.2 °F 12.4 °F 29.93 in NNE 2.0 mph 7.0 mph 49% 0.00 in CLR
20:00 29.0 °F 12.7 °F 29.93 in Calm   7.0 mph 50% 0.00 in CLR
20:10 28.8 °F 12.5 °F 29.93 in Calm   4.0 mph 50% 0.00 in CLR
20:20 28.6 °F 11.8 °F 29.94 in NE 2.0 mph 7.0 mph 49% 0.00 in CLR
20:30 28.5 °F 11.7 °F 29.94 in North 1.0 mph 6.0 mph 49% 0.00 in CLR
20:40 28.3 °F 11.6 °F 29.95 in NE 2.0 mph 7.0 mph 49% 0.00 in CLR
20:50 28.2 °F 11.5 °F 29.95 in Calm   6.0 mph 49% 0.00 in CLR
21:00 27.9 °F 11.6 °F 29.95 in Calm   2.0 mph 50% 0.00 in CLR
21:10 27.8 °F 11.1 °F 29.95 in Calm   5.0 mph 49% 0.00 in CLR
21:20 27.5 °F 11.3 °F 29.96 in Calm   3.0 mph 50% 0.00 in CLR
21:30 27.4 °F 11.2 °F 29.96 in Calm   6.0 mph 50% 0.00 in CLR
21:40 27.3 °F 11.1 °F 29.97 in Calm   7.0 mph 50% 0.00 in CLR
21:50 27.2 °F 11.0 °F 29.97 in Calm   4.0 mph 50% 0.00 in CLR
22:00 27.1 °F 10.9 °F 29.97 in Calm   7.0 mph 50% 0.00 in CLR
22:10 27.0 °F 10.8 °F 29.98 in Calm   4.0 mph 50% 0.00 in CLR
22:20 26.8 °F 11.1 °F 29.97 in Calm   3.0 mph 51% 0.00 in CLR
22:30 26.6 °F 10.9 °F 29.98 in Calm   4.0 mph 51% 0.00 in CLR
22:40 26.5 °F 10.8 °F 29.98 in Calm   5.0 mph 51% 0.00 in CLR
22:50 26.4 °F 11.1 °F 29.98 in Calm   6.0 mph 52% 0.00 in CLR
23:00 26.3 °F 11.0 °F 29.98 in NNW 1.0 mph 3.0 mph 52% 0.00 in CLR
23:10 26.4 °F 11.1 °F 29.98 in West 1.0 mph 5.0 mph 52% 0.00 in CLR
23:20 26.2 °F 11.0 °F 29.98 in SW 2.0 mph 4.0 mph 52% 0.00 in CLR
23:30 26.1 °F 11.3 °F 29.98 in SW 1.0 mph 4.0 mph 53% 0.00 in CLR
23:40 26.0 °F 10.8 °F 29.98 in Calm   5.0 mph 52% 0.00 in CLR
23:50 25.8 °F 11.0 °F 29.98 in Calm   4.0 mph 53% 0.00 in CLR
TarryTown NY Weather
Compliments of Weather Underground - 1.75 mb